createdAt,value
2018-09-11T00:00:55.545Z,19.16
2018-09-11T00:02:02.843Z,19.11
2018-09-11T00:03:09.105Z,19.23
2018-09-11T00:04:15.442Z,19.28
2018-09-11T00:05:21.729Z,19.33
2018-09-11T00:06:28.029Z,19.12
2018-09-11T00:07:34.155Z,18.94
2018-09-11T00:08:39.929Z,18.94
2018-09-11T00:09:46.417Z,19.05
2018-09-11T00:10:52.763Z,18.97
2018-09-11T00:12:00.208Z,18.96
2018-09-11T00:13:05.977Z,18.99
2018-09-11T00:14:12.044Z,19.03
2018-09-11T00:15:18.574Z,19.08
2018-09-11T00:16:25.348Z,19.13
2018-09-11T00:17:31.901Z,19.14
2018-09-11T00:18:37.836Z,19.07
2018-09-11T00:19:44.413Z,19.13
2018-09-11T00:20:50.850Z,19.10
2018-09-11T00:21:56.791Z,19.12
2018-09-11T00:23:03.168Z,19.03
2018-09-11T00:24:09.105Z,18.87
2018-09-11T00:25:15.549Z,18.79
2018-09-11T00:26:21.626Z,18.79
2018-09-11T00:27:27.699Z,18.71
2018-09-11T00:28:33.952Z,18.68
2018-09-11T00:29:40.379Z,18.80
2018-09-11T00:30:46.329Z,18.75
2018-09-11T00:31:52.398Z,18.77
2018-09-11T00:32:58.835Z,18.84
2018-09-11T00:34:05.127Z,18.69
2018-09-11T00:35:11.420Z,18.51
2018-09-11T00:36:17.773Z,18.44
2018-09-11T00:37:24.084Z,18.39
2018-09-11T00:38:30.409Z,18.36
2018-09-11T00:39:36.346Z,18.27
2018-09-11T00:40:43.525Z,18.26
2018-09-11T00:41:49.585Z,18.25
2018-09-11T00:42:56.009Z,18.28
2018-09-11T00:44:02.177Z,18.27
2018-09-11T00:45:07.744Z,18.25
2018-09-11T00:46:14.041Z,18.28
2018-09-11T00:47:20.165Z,18.29
2018-09-11T00:48:26.176Z,18.33
2018-09-11T00:49:32.463Z,18.28
2018-09-11T00:50:38.774Z,18.35
2018-09-11T00:51:45.160Z,18.29
2018-09-11T00:52:51.672Z,18.30
2018-09-11T00:53:57.754Z,18.54
2018-09-11T00:55:04.125Z,18.82
2018-09-11T00:56:10.456Z,18.94
2018-09-11T00:57:16.796Z,18.82
2018-09-11T00:58:23.044Z,18.72
2018-09-11T00:59:29.373Z,18.67
2018-09-11T01:00:35.702Z,18.75
2018-09-11T01:01:40.615Z,18.71
2018-09-11T01:02:47.020Z,18.69
2018-09-11T01:03:53.332Z,18.74
2018-09-11T01:04:59.612Z,18.78
2018-09-11T01:06:05.953Z,18.61
2018-09-11T01:07:12.220Z,18.42
2018-09-11T01:08:18.581Z,18.29
2018-09-11T01:09:25.072Z,18.27
2018-09-11T01:10:31.509Z,18.11
2018-09-11T01:11:39.420Z,18.08
2018-09-11T01:12:45.876Z,18.08
2018-09-11T01:13:52.248Z,17.96
2018-09-11T01:14:58.226Z,17.96
2018-09-11T01:16:04.393Z,17.92
2018-09-11T01:17:10.772Z,17.88
2018-09-11T01:18:17.880Z,17.82
2018-09-11T01:19:24.957Z,17.78
2018-09-11T01:20:31.235Z,17.72
2018-09-11T01:21:37.587Z,17.78
2018-09-11T01:22:43.891Z,17.82
2018-09-11T01:23:50.305Z,17.82
2018-09-11T01:24:56.356Z,17.80
2018-09-11T01:26:02.936Z,17.79
2018-09-11T01:27:08.957Z,17.75
2018-09-11T01:28:15.673Z,17.71
2018-09-11T01:29:21.991Z,17.68
2018-09-11T01:30:28.281Z,17.68
2018-09-11T01:31:34.212Z,17.68
2018-09-11T01:32:40.605Z,17.64
2018-09-11T01:33:46.917Z,17.67
2018-09-11T01:34:53.211Z,17.70
2018-09-11T01:35:59.277Z,17.77
2018-09-11T01:37:05.657Z,17.83
2018-09-11T01:38:11.985Z,17.91
2018-09-11T01:39:18.301Z,17.83
2018-09-11T01:40:24.492Z,17.90
2018-09-11T01:41:30.770Z,17.85
2018-09-11T01:42:37.060Z,17.95
2018-09-11T01:43:43.427Z,17.99
2018-09-11T01:44:50.424Z,18.03
2018-09-11T01:45:56.479Z,17.93
2018-09-11T01:47:02.858Z,17.92
2018-09-11T01:48:09.197Z,17.85
2018-09-11T01:49:15.560Z,17.77
2018-09-11T01:50:21.862Z,17.70
2018-09-11T01:51:28.273Z,17.77
2018-09-11T01:52:34.620Z,17.91
2018-09-11T01:53:40.747Z,17.96
2018-09-11T01:54:47.023Z,17.97
2018-09-11T01:55:53.411Z,17.87
2018-09-11T01:56:59.764Z,17.81
2018-09-11T01:58:06.147Z,17.75
2018-09-11T01:59:12.476Z,17.65
2018-09-11T02:00:19.443Z,17.67
2018-09-11T02:01:25.816Z,17.67
2018-09-11T02:02:32.133Z,17.80
2018-09-11T02:03:39.105Z,17.84
2018-09-11T02:04:45.448Z,17.85
2018-09-11T02:05:51.790Z,17.84
2018-09-11T02:06:58.104Z,17.94
2018-09-11T02:08:05.336Z,18.12
2018-09-11T02:09:11.683Z,18.09
2018-09-11T02:10:18.783Z,17.96
2018-09-11T02:11:24.533Z,17.83
2018-09-11T02:12:30.562Z,17.66
2018-09-11T02:13:37.569Z,17.79
2018-09-11T02:14:44.987Z,17.74
2018-09-11T02:15:50.668Z,17.65
2018-09-11T02:16:57.039Z,17.60
2018-09-11T02:18:03.116Z,17.59
2018-09-11T02:19:09.510Z,17.58
2018-09-11T02:20:15.535Z,17.66
2018-09-11T02:21:21.884Z,17.74
2018-09-11T02:22:27.990Z,17.74
2018-09-11T02:23:34.443Z,17.69
2018-09-11T02:24:40.529Z,17.64
2018-09-11T02:25:46.616Z,17.64
2018-09-11T02:26:52.937Z,17.50
2018-09-11T02:27:59.534Z,17.40
2018-09-11T02:29:05.665Z,17.39
2018-09-11T02:30:12.076Z,17.48
2018-09-11T02:31:18.968Z,17.47
2018-09-11T02:32:25.187Z,17.52
2018-09-11T02:33:31.669Z,17.44
2018-09-11T02:34:37.931Z,17.50
2018-09-11T02:35:44.370Z,17.46
2018-09-11T02:36:50.915Z,17.42
2018-09-11T02:37:57.176Z,17.43
2018-09-11T02:39:02.928Z,17.54
2018-09-11T02:40:09.304Z,17.49
2018-09-11T02:41:15.733Z,17.47
2018-09-11T02:42:22.024Z,17.45
2018-09-11T02:43:28.153Z,17.42
2018-09-11T02:44:34.432Z,17.40
2018-09-11T02:45:41.460Z,17.38
2018-09-11T02:46:47.881Z,17.37
2018-09-11T02:47:54.830Z,17.37
2018-09-11T02:49:02.632Z,17.38
2018-09-11T02:50:08.403Z,17.36
2018-09-11T02:51:14.771Z,17.32
2018-09-11T02:52:20.893Z,17.27
2018-09-11T02:53:27.173Z,17.21
2018-09-11T02:54:33.539Z,17.31
2018-09-11T02:55:39.856Z,17.36
2018-09-11T02:56:46.112Z,17.28
2018-09-11T02:57:53.073Z,17.18
2018-09-11T02:58:59.503Z,17.12
2018-09-11T03:00:05.434Z,17.07
2018-09-11T03:01:11.772Z,17.44
2018-09-11T03:02:18.160Z,17.36
2018-09-11T03:03:25.498Z,17.24
2018-09-11T03:04:31.827Z,17.20
2018-09-11T03:05:38.149Z,17.13
2018-09-11T03:06:44.444Z,17.13
2018-09-11T03:07:50.772Z,17.13
2018-09-11T03:08:57.133Z,17.15
2018-09-11T03:10:03.666Z,17.23
2018-09-11T03:11:09.804Z,17.37
2018-09-11T03:12:16.182Z,17.25
2018-09-11T03:13:22.548Z,17.40
2018-09-11T03:14:34.411Z,17.42
2018-09-11T03:15:41.212Z,17.50
2018-09-11T03:16:47.645Z,17.31
2018-09-11T03:17:53.924Z,17.23
2018-09-11T03:19:00.359Z,17.25
2018-09-11T03:20:06.257Z,17.18
2018-09-11T03:21:12.641Z,17.19
2018-09-11T03:22:18.991Z,17.10
2018-09-11T03:23:25.124Z,17.01
2018-09-11T03:24:31.441Z,17.16
2018-09-11T03:25:37.700Z,17.17
2018-09-11T03:26:43.698Z,17.17
2018-09-11T03:27:50.011Z,17.25
2018-09-11T03:28:56.561Z,17.28
2018-09-11T03:30:02.963Z,17.32
2018-09-11T03:31:09.425Z,17.27
2018-09-11T03:32:15.764Z,17.34
2018-09-11T03:33:22.851Z,17.27
2018-09-11T03:34:29.863Z,17.29
2018-09-11T03:35:35.905Z,17.51
2018-09-11T03:36:42.357Z,17.53
2018-09-11T03:37:48.686Z,17.42
2018-09-11T03:38:54.979Z,17.30
2018-09-11T03:40:01.612Z,17.38
2018-09-11T03:41:08.748Z,17.24
2018-09-11T03:42:15.094Z,17.27
2018-09-11T03:43:21.079Z,17.19
2018-09-11T03:44:27.504Z,17.26
2018-09-11T03:45:33.948Z,17.19
2018-09-11T03:46:40.557Z,17.19
2018-09-11T03:47:46.959Z,17.13
2018-09-11T03:48:52.992Z,17.17
2018-09-11T03:49:59.096Z,17.37
2018-09-11T03:51:04.805Z,17.45
2018-09-11T03:52:11.189Z,17.48
2018-09-11T03:53:17.279Z,17.64
2018-09-11T03:54:25.384Z,17.44
2018-09-11T03:55:33.301Z,17.34
2018-09-11T03:56:42.419Z,17.27
2018-09-11T03:57:50.846Z,17.30
2018-09-11T03:58:58.061Z,17.49
2018-09-11T04:00:07.714Z,17.54
2018-09-11T04:01:15.581Z,17.61
2018-09-11T04:02:23.032Z,17.60
2018-09-11T04:03:30.981Z,17.87
2018-09-11T04:04:39.531Z,17.89
2018-09-11T04:05:47.992Z,17.70
2018-09-11T04:06:55.661Z,17.74
2018-09-11T04:08:05.221Z,17.85
2018-09-11T04:09:13.046Z,17.81
2018-09-11T04:10:19.780Z,17.71
2018-09-11T04:11:26.069Z,17.61
2018-09-11T04:12:32.459Z,17.70
2018-09-11T04:13:38.835Z,17.71
2018-09-11T04:14:45.250Z,17.50
2018-09-11T04:15:51.664Z,17.45
2018-09-11T04:16:57.944Z,17.41
2018-09-11T04:18:04.231Z,17.23
2018-09-11T04:19:10.552Z,17.22
2018-09-11T04:20:16.913Z,17.20
2018-09-11T04:21:22.976Z,17.25
2018-09-11T04:22:29.150Z,17.39
2018-09-11T04:23:35.528Z,17.35
2018-09-11T04:24:41.849Z,17.37
2018-09-11T04:25:48.780Z,17.40
2018-09-11T04:26:55.360Z,17.53
2018-09-11T04:28:01.963Z,17.41
2018-09-11T04:29:08.799Z,17.43
2018-09-11T04:30:15.852Z,17.22
2018-09-11T04:31:21.956Z,17.09
2018-09-11T04:32:28.235Z,17.05
2018-09-11T04:33:34.372Z,16.97
2018-09-11T04:34:40.770Z,17.16
2018-09-11T04:35:47.126Z,17.19
2018-09-11T04:36:53.139Z,17.07
2018-09-11T04:38:00.223Z,16.90
2018-09-11T04:39:05.790Z,16.84
2018-09-11T04:40:12.250Z,16.81
2018-09-11T04:41:18.356Z,16.85
2018-09-11T04:42:24.370Z,16.79
2018-09-11T04:43:30.653Z,16.72
2018-09-11T04:44:36.962Z,16.63
2018-09-11T04:45:43.954Z,16.59
2018-09-11T04:46:50.196Z,16.55
2018-09-11T04:47:56.330Z,16.49
2018-09-11T04:49:03.403Z,16.52
2018-09-11T04:50:09.885Z,16.48
2018-09-11T04:51:16.164Z,16.44
2018-09-11T04:52:22.234Z,16.38
2018-09-11T04:53:28.508Z,16.32
2018-09-11T04:54:34.926Z,16.35
2018-09-11T04:55:41.249Z,16.34
2018-09-11T04:56:47.524Z,16.39
2018-09-11T04:57:53.832Z,16.30
2018-09-11T04:59:00.195Z,16.29
2018-09-11T05:00:06.467Z,16.14
2018-09-11T05:01:12.847Z,16.16
2018-09-11T05:02:19.180Z,16.19
2018-09-11T05:03:25.483Z,16.30
2018-09-11T05:04:31.905Z,16.25
2018-09-11T05:05:38.245Z,16.36
2018-09-11T05:06:44.522Z,16.31
2018-09-11T05:07:50.603Z,16.26
2018-09-11T05:08:57.051Z,16.20
2018-09-11T05:10:03.244Z,16.11
2018-09-11T05:11:09.816Z,16.19
2018-09-11T05:12:16.119Z,16.01
2018-09-11T05:13:21.835Z,15.99
2018-09-11T05:14:28.202Z,15.94
2018-09-11T05:15:34.510Z,15.95
2018-09-11T05:16:40.968Z,15.87
2018-09-11T05:17:47.598Z,15.87
2018-09-11T05:18:54.034Z,16.01
2018-09-11T05:20:00.407Z,16.14
2018-09-11T05:21:06.758Z,16.13
2018-09-11T05:22:13.901Z,16.24
2018-09-11T05:23:20.151Z,16.17
2018-09-11T05:24:26.813Z,16.25
2018-09-11T05:25:34.059Z,16.33
2018-09-11T05:26:40.412Z,16.31
2018-09-11T05:27:47.029Z,16.25
2018-09-11T05:28:53.637Z,16.23
2018-09-11T05:30:00.152Z,16.16
2018-09-11T05:31:07.065Z,16.27
2018-09-11T05:32:13.594Z,16.24
2018-09-11T05:33:20.199Z,16.22
2018-09-11T05:34:26.677Z,16.24
2018-09-11T05:35:34.710Z,16.14
2018-09-11T05:36:41.283Z,16.30
2018-09-11T05:37:47.301Z,16.37
2018-09-11T05:38:54.825Z,16.50
2018-09-11T05:40:00.929Z,16.43
2018-09-11T05:41:07.425Z,16.48
2018-09-11T05:42:13.783Z,16.42
2018-09-11T05:43:20.177Z,16.40
2018-09-11T05:44:26.503Z,16.34
2018-09-11T05:45:32.466Z,16.40
2018-09-11T05:46:38.974Z,16.53
2018-09-11T05:47:45.239Z,16.47
2018-09-11T05:48:51.544Z,16.53
2018-09-11T05:49:57.670Z,16.50
2018-09-11T05:51:03.921Z,16.49
2018-09-11T05:52:10.297Z,16.68
2018-09-11T05:53:16.610Z,16.76
2018-09-11T05:54:22.676Z,16.74
2018-09-11T05:55:29.096Z,16.74
2018-09-11T05:56:36.531Z,16.71
2018-09-11T05:57:44.885Z,16.84
2018-09-11T05:58:53.426Z,16.91
2018-09-11T06:00:00.767Z,16.96
2018-09-11T06:01:09.284Z,17.12
2018-09-11T06:02:16.168Z,17.30
2018-09-11T06:03:24.254Z,17.43
2018-09-11T06:04:30.756Z,17.53
2018-09-11T06:05:37.112Z,17.43
2018-09-11T06:06:43.753Z,17.51
2018-09-11T06:07:50.140Z,17.55
2018-09-11T06:08:56.537Z,17.63
2018-09-11T06:10:02.893Z,17.58
2018-09-11T06:11:09.223Z,17.58
2018-09-11T06:12:15.577Z,17.58
2018-09-11T06:13:22.633Z,17.63
2018-09-11T06:14:29.005Z,17.63
2018-09-11T06:15:35.337Z,17.88
2018-09-11T06:16:41.681Z,17.89
2018-09-11T06:17:47.996Z,17.94
2018-09-11T06:18:53.933Z,18.06
2018-09-11T06:20:00.365Z,18.09
2018-09-11T06:21:06.969Z,18.30
2018-09-11T06:22:13.300Z,18.19
2018-09-11T06:23:20.964Z,18.28
2018-09-11T06:24:27.376Z,18.47
2018-09-11T06:25:33.815Z,18.43
2018-09-11T06:26:40.412Z,18.41
2018-09-11T06:27:46.882Z,18.30
2018-09-11T06:28:53.343Z,18.51
2018-09-11T06:29:59.618Z,18.58
2018-09-11T06:31:05.249Z,18.60
2018-09-11T06:32:11.682Z,18.80
2018-09-11T06:33:18.045Z,18.81
2018-09-11T06:34:24.373Z,18.86
2018-09-11T06:35:30.727Z,18.81
2018-09-11T06:36:36.973Z,18.93
2018-09-11T06:37:43.344Z,19.03
2018-09-11T06:38:49.598Z,18.87
2018-09-11T06:39:55.684Z,19.06
2018-09-11T06:41:01.773Z,19.08
2018-09-11T06:42:08.181Z,19.07
2018-09-11T06:43:14.256Z,19.24
2018-09-11T06:44:20.669Z,19.33
2018-09-11T06:45:26.965Z,19.36
2018-09-11T06:46:33.335Z,19.39
2018-09-11T06:47:40.281Z,19.43
2018-09-11T06:48:46.537Z,19.55
2018-09-11T06:49:52.826Z,19.49
2018-09-11T06:50:59.173Z,19.55
2018-09-11T06:52:05.139Z,19.55
2018-09-11T06:53:11.560Z,19.69
2018-09-11T06:54:17.900Z,19.74
2018-09-11T06:55:24.187Z,19.67
2018-09-11T06:56:30.659Z,19.74
2018-09-11T06:57:37.528Z,19.89
2018-09-11T06:58:43.749Z,19.98
2018-09-11T06:59:50.293Z,20.03
2018-09-11T07:00:56.561Z,20.00
2018-09-11T07:02:03.117Z,19.96
2018-09-11T07:03:09.615Z,20.10
2018-09-11T07:04:15.833Z,20.14
2018-09-11T07:05:22.124Z,20.19
2018-09-11T07:06:28.069Z,20.26
2018-09-11T07:07:34.489Z,20.28
2018-09-11T07:08:40.866Z,20.31
2018-09-11T07:09:47.160Z,20.19
2018-09-11T07:10:53.628Z,20.33
2018-09-11T07:11:59.941Z,20.48
2018-09-11T07:13:05.533Z,20.48
2018-09-11T07:14:11.844Z,20.54
2018-09-11T07:15:18.160Z,20.61
2018-09-11T07:16:25.268Z,20.69
2018-09-11T07:17:31.695Z,20.64
2018-09-11T07:18:37.960Z,20.70
2018-09-11T07:19:44.301Z,20.74
2018-09-11T07:20:50.789Z,20.79
2018-09-11T07:21:56.845Z,20.82
2018-09-11T07:23:03.632Z,20.81
2018-09-11T07:24:09.665Z,20.84
2018-09-11T07:25:16.040Z,20.86
2018-09-11T07:26:22.369Z,20.91
2018-09-11T07:27:29.266Z,20.83
2018-09-11T07:28:35.740Z,20.90
2018-09-11T07:29:41.765Z,20.87
2018-09-11T07:30:48.102Z,20.91
2018-09-11T07:31:54.422Z,20.92
2018-09-11T07:33:00.779Z,21.01
2018-09-11T07:34:07.025Z,20.96
2018-09-11T07:35:13.354Z,20.96
2018-09-11T07:36:19.786Z,20.94
2018-09-11T07:37:26.447Z,20.92
2018-09-11T07:38:32.704Z,20.90
2018-09-11T07:39:39.128Z,21.07
2018-09-11T07:40:45.429Z,21.03
2018-09-11T07:41:51.771Z,20.99
2018-09-11T07:42:58.077Z,20.99
2018-09-11T07:44:04.061Z,21.13
2018-09-11T07:45:10.444Z,21.20
2018-09-11T07:46:16.822Z,21.23
2018-09-11T07:47:23.146Z,21.24
2018-09-11T07:48:29.348Z,21.37
2018-09-11T07:49:35.632Z,21.40
2018-09-11T07:50:41.606Z,21.44
2018-09-11T07:51:48.072Z,21.49
2018-09-11T07:52:54.397Z,21.53
2018-09-11T07:54:00.982Z,21.50
2018-09-11T07:55:06.938Z,21.47
2018-09-11T07:56:12.884Z,21.53
2018-09-11T07:57:19.218Z,21.64
2018-09-11T07:58:25.408Z,21.65
2018-09-11T07:59:31.721Z,21.68
2018-09-11T08:00:37.820Z,21.55
2018-09-11T08:01:43.794Z,21.56
2018-09-11T08:02:50.132Z,21.66
2018-09-11T08:03:56.214Z,21.70
2018-09-11T08:05:02.638Z,21.71
2018-09-11T08:06:09.043Z,21.64
2018-09-11T08:07:15.508Z,21.58
2018-09-11T08:08:21.799Z,21.60
2018-09-11T08:09:28.625Z,21.69
2018-09-11T08:10:35.885Z,21.70
2018-09-11T08:11:42.312Z,21.79
2018-09-11T08:12:48.787Z,21.79
2018-09-11T08:13:54.463Z,21.80
2018-09-11T08:15:00.806Z,21.78
2018-09-11T08:16:07.135Z,21.73
2018-09-11T08:17:13.474Z,21.69
2018-09-11T08:18:19.891Z,21.73
2018-09-11T08:19:26.122Z,21.77
2018-09-11T08:20:32.369Z,21.88
2018-09-11T08:21:38.637Z,21.84
2018-09-11T08:22:44.869Z,21.80
2018-09-11T08:23:51.084Z,21.82
2018-09-11T08:24:58.464Z,21.85
2018-09-11T08:26:04.947Z,21.88
2018-09-11T08:27:11.278Z,21.92
2018-09-11T08:28:17.523Z,22.01
2018-09-11T08:29:23.636Z,22.02
2018-09-11T08:30:29.797Z,22.14
2018-09-11T08:31:36.201Z,22.24
2018-09-11T08:32:42.879Z,22.22
2018-09-11T08:33:49.248Z,22.25
2018-09-11T08:35:03.011Z,22.38
2018-09-11T08:36:20.205Z,22.39
2018-09-11T08:37:38.551Z,22.30
2018-09-11T08:38:57.833Z,22.35
2018-09-11T08:40:17.156Z,22.44
2018-09-11T08:41:39.574Z,22.33
2018-09-11T08:42:59.928Z,22.21
2018-09-11T08:44:22.292Z,22.25
2018-09-11T08:45:41.907Z,22.38
2018-09-11T08:46:58.182Z,22.34
2018-09-11T08:48:04.780Z,22.49
2018-09-11T08:49:11.144Z,22.41
2018-09-11T08:50:17.033Z,22.42
2018-09-11T08:51:23.203Z,22.46
2018-09-11T08:52:29.459Z,22.54
2018-09-11T08:53:35.893Z,22.57
2018-09-11T08:54:42.400Z,22.59
2018-09-11T08:55:48.827Z,22.61
2018-09-11T08:56:55.089Z,22.65
2018-09-11T08:58:01.345Z,22.66
2018-09-11T08:59:07.653Z,22.71
2018-09-11T09:00:13.529Z,22.81
2018-09-11T09:01:19.880Z,22.88
2018-09-11T09:02:26.340Z,22.98
2018-09-11T09:03:32.558Z,22.95
2018-09-11T09:04:39.364Z,22.93
2018-09-11T09:05:45.732Z,22.79
2018-09-11T09:06:51.969Z,22.88
2018-09-11T09:07:58.531Z,22.92
2018-09-11T09:09:04.174Z,23.00
2018-09-11T09:10:09.987Z,23.04
2018-09-11T09:11:16.393Z,23.08
2018-09-11T09:12:22.719Z,23.18
2018-09-11T09:13:29.210Z,23.24
2018-09-11T09:14:35.580Z,23.23
2018-09-11T09:15:41.872Z,23.20
2018-09-11T09:16:48.441Z,23.20
2018-09-11T09:17:54.786Z,23.14
2018-09-11T09:19:01.038Z,22.98
2018-09-11T09:20:06.916Z,23.01
2018-09-11T09:21:13.149Z,22.86
2018-09-11T09:22:29.056Z,22.87
2018-09-11T09:23:47.883Z,22.80
2018-09-11T09:25:05.697Z,22.86
2018-09-11T09:26:16.871Z,23.04
2018-09-11T09:27:23.258Z,23.05
2018-09-11T09:28:29.716Z,23.06
2018-09-11T09:29:36.172Z,23.16
2018-09-11T09:30:42.448Z,23.15
2018-09-11T09:31:48.763Z,22.96
2018-09-11T09:32:55.048Z,23.00
2018-09-11T09:34:01.310Z,23.09
2018-09-11T09:35:06.868Z,23.05
2018-09-11T09:36:13.303Z,23.06
2018-09-11T09:37:19.387Z,23.13
2018-09-11T09:38:25.846Z,23.16
2018-09-11T09:39:32.149Z,23.13
2018-09-11T09:40:38.396Z,23.20
2018-09-11T09:41:44.661Z,23.32
2018-09-11T09:42:50.769Z,23.30
2018-09-11T09:43:57.185Z,23.33
2018-09-11T09:45:03.321Z,23.41
2018-09-11T09:46:09.724Z,23.43
2018-09-11T09:47:16.137Z,23.41
2018-09-11T09:48:22.475Z,23.45
2018-09-11T09:49:28.776Z,23.52
2018-09-11T09:50:34.709Z,23.40
2018-09-11T09:51:41.154Z,23.45
2018-09-11T09:52:47.495Z,23.65
2018-09-11T09:53:53.783Z,23.58
2018-09-11T09:55:00.188Z,23.62
2018-09-11T09:56:06.512Z,23.64
2018-09-11T09:57:12.771Z,23.66
2018-09-11T09:58:19.049Z,23.66
2018-09-11T09:59:25.284Z,23.74
2018-09-11T10:00:31.471Z,23.87
2018-09-11T10:01:37.622Z,23.82
2018-09-11T10:02:43.977Z,23.81
2018-09-11T10:03:50.309Z,23.92
2018-09-11T10:05:06.281Z,23.90
2018-09-11T10:06:18.426Z,23.81
2018-09-11T10:07:24.648Z,23.81
2018-09-11T10:08:31.026Z,23.84
2018-09-11T10:09:37.286Z,23.80
2018-09-11T10:10:43.603Z,23.83
2018-09-11T10:11:49.844Z,23.71
2018-09-11T10:12:56.474Z,23.70
2018-09-11T10:14:02.742Z,23.75
2018-09-11T10:15:08.673Z,23.72
2018-09-11T10:16:14.929Z,23.78
2018-09-11T10:17:21.168Z,23.85
2018-09-11T10:18:27.455Z,23.85
2018-09-11T10:19:33.709Z,23.84
2018-09-11T10:20:39.970Z,23.82
2018-09-11T10:21:46.227Z,23.85
2018-09-11T10:22:52.573Z,23.89
2018-09-11T10:23:58.640Z,23.88
2018-09-11T10:25:04.378Z,23.83
2018-09-11T10:26:10.769Z,24.05
2018-09-11T10:27:16.825Z,24.23
2018-09-11T10:28:23.304Z,24.24
2018-09-11T10:29:29.532Z,24.19
2018-09-11T10:30:35.902Z,24.20
2018-09-11T10:31:42.686Z,24.22
2018-09-11T10:32:48.691Z,24.29
2018-09-11T10:33:55.195Z,24.34
2018-09-11T10:35:01.739Z,24.41
2018-09-11T10:36:07.980Z,24.39
2018-09-11T10:37:14.186Z,24.45
2018-09-11T10:38:20.145Z,24.37
2018-09-11T10:39:26.455Z,24.37
2018-09-11T10:40:32.835Z,24.52
2018-09-11T10:41:39.070Z,24.68
2018-09-11T10:42:45.340Z,24.78
2018-09-11T10:43:51.720Z,24.91
2018-09-11T10:44:57.717Z,24.96
2018-09-11T10:46:04.146Z,24.94
2018-09-11T10:47:10.393Z,24.90
2018-09-11T10:48:16.640Z,24.90
2018-09-11T10:49:22.884Z,24.88
2018-09-11T10:50:29.120Z,24.99
2018-09-11T10:51:35.386Z,25.00
2018-09-11T10:52:41.620Z,25.13
2018-09-11T10:53:47.873Z,25.23
2018-09-11T10:54:54.077Z,25.07
2018-09-11T10:56:00.298Z,25.09
2018-09-11T10:57:06.168Z,25.13
2018-09-11T10:58:12.390Z,25.19
2018-09-11T10:59:18.316Z,25.11
2018-09-11T11:00:24.552Z,25.04
2018-09-11T11:01:30.814Z,25.04
2018-09-11T11:02:37.034Z,25.12
2018-09-11T11:03:43.090Z,25.22
2018-09-11T11:04:49.308Z,25.35
2018-09-11T11:05:55.532Z,25.21
2018-09-11T11:07:01.760Z,25.17
2018-09-11T11:08:07.683Z,24.97
2018-09-11T11:09:13.921Z,24.85
2018-09-11T11:10:20.152Z,24.72
2018-09-11T11:11:26.395Z,24.72
2018-09-11T11:12:32.643Z,24.76
2018-09-11T11:13:38.877Z,24.79
2018-09-11T11:14:45.142Z,24.75
2018-09-11T11:15:51.392Z,24.59
2018-09-11T11:16:57.355Z,24.57
2018-09-11T11:18:03.592Z,24.76
2018-09-11T11:19:09.851Z,24.89
2018-09-11T11:20:16.089Z,24.76
2018-09-11T11:21:22.316Z,24.89
2018-09-11T11:22:28.612Z,25.04
2018-09-11T11:23:34.873Z,25.05
2018-09-11T11:24:41.135Z,24.98
2018-09-11T11:25:47.342Z,24.87
2018-09-11T11:26:54.720Z,24.93
2018-09-11T11:28:01.114Z,24.99
2018-09-11T11:29:07.098Z,24.98
2018-09-11T11:30:13.348Z,24.94
2018-09-11T11:31:19.747Z,25.04
2018-09-11T11:32:26.014Z,25.01
2018-09-11T11:33:32.243Z,25.11
2018-09-11T11:34:38.512Z,25.15
2018-09-11T11:35:44.740Z,25.31
2018-09-11T11:36:51.174Z,25.37
2018-09-11T11:37:57.467Z,25.57
2018-09-11T11:39:03.095Z,25.71
2018-09-11T11:40:10.072Z,25.61
2018-09-11T11:41:16.821Z,25.67
2018-09-11T11:42:23.052Z,25.66
2018-09-11T11:43:29.544Z,25.69
2018-09-11T11:44:35.788Z,25.71
2018-09-11T11:45:42.043Z,25.73
2018-09-11T11:46:48.273Z,25.59
2018-09-11T11:47:54.533Z,25.44
2018-09-11T11:49:00.787Z,25.40
2018-09-11T11:50:06.349Z,25.35
2018-09-11T11:51:12.588Z,25.28
2018-09-11T11:52:18.854Z,25.14
2018-09-11T11:53:25.084Z,25.14
2018-09-11T11:54:31.373Z,25.09
2018-09-11T11:55:37.611Z,25.11
2018-09-11T11:56:43.849Z,25.20
2018-09-11T11:57:50.082Z,25.20
2018-09-11T11:58:56.315Z,25.20
2018-09-11T12:00:02.576Z,25.15
2018-09-11T12:01:08.441Z,25.20
2018-09-11T12:02:14.498Z,25.26
2018-09-11T12:03:20.772Z,25.26
2018-09-11T12:04:27.009Z,25.25
2018-09-11T12:05:33.273Z,25.30
2018-09-11T12:06:41.540Z,25.39
2018-09-11T12:07:47.775Z,25.37
2018-09-11T12:08:54.212Z,25.22
2018-09-11T12:10:00.464Z,25.33
2018-09-11T12:11:06.679Z,25.33
2018-09-11T12:12:12.910Z,25.22
2018-09-11T12:13:19.225Z,25.26
2018-09-11T12:14:25.660Z,25.30
2018-09-11T12:15:31.911Z,25.34
2018-09-11T12:16:38.195Z,25.38
2018-09-11T12:17:44.395Z,25.43
2018-09-11T12:18:50.726Z,25.39
2018-09-11T12:19:56.991Z,25.40
2018-09-11T12:21:03.325Z,25.41
2018-09-11T12:22:09.568Z,25.47
2018-09-11T12:23:15.816Z,25.56
2018-09-11T12:24:22.079Z,25.60
2018-09-11T12:25:28.388Z,25.73
2018-09-11T12:26:34.880Z,25.74
2018-09-11T12:27:41.288Z,25.93
2018-09-11T12:28:47.530Z,26.06
2018-09-11T12:29:53.811Z,26.23
2018-09-11T12:31:00.131Z,26.14
2018-09-11T12:32:06.524Z,26.01
2018-09-11T12:33:12.769Z,26.04
2018-09-11T12:34:19.016Z,26.20
2018-09-11T12:35:25.306Z,26.21
2018-09-11T12:36:31.604Z,26.22
2018-09-11T12:37:37.848Z,26.27
2018-09-11T12:38:43.809Z,26.35
2018-09-11T12:39:49.734Z,26.36
2018-09-11T12:40:55.984Z,26.43
2018-09-11T12:42:02.225Z,26.46
2018-09-11T12:43:07.951Z,26.44
2018-09-11T12:44:13.920Z,26.53
2018-09-11T12:45:30.226Z,26.59
2018-09-11T12:46:39.963Z,26.69
2018-09-11T12:47:46.039Z,26.54
2018-09-11T12:48:52.388Z,26.46
2018-09-11T12:49:58.802Z,26.55
2018-09-11T12:51:04.731Z,26.58
2018-09-11T12:52:10.678Z,26.64
2018-09-11T12:53:16.655Z,26.72
2018-09-11T12:54:22.884Z,26.68
2018-09-11T12:55:29.158Z,26.63
2018-09-11T12:56:35.109Z,26.70
2018-09-11T12:57:41.059Z,26.83
2018-09-11T12:58:47.293Z,26.81
2018-09-11T12:59:53.545Z,26.89
2018-09-11T13:00:59.453Z,26.93
2018-09-11T13:02:05.365Z,26.95
2018-09-11T13:03:11.256Z,26.91
2018-09-11T13:04:17.196Z,26.96
2018-09-11T13:05:23.145Z,27.10
2018-09-11T13:06:29.380Z,26.99
2018-09-11T13:07:35.334Z,26.82
2018-09-11T13:08:41.287Z,26.90
2018-09-11T13:09:47.520Z,26.89
2018-09-11T13:10:53.493Z,26.98
2018-09-11T13:11:59.636Z,27.09
2018-09-11T13:13:05.622Z,27.04
2018-09-11T13:14:11.892Z,27.01
2018-09-11T13:15:18.419Z,27.12
2018-09-11T13:16:24.380Z,27.28
2018-09-11T13:17:30.640Z,27.46
2018-09-11T13:18:36.601Z,27.54
2018-09-11T13:19:42.545Z,27.43
2018-09-11T13:20:48.491Z,27.52
2018-09-11T13:21:54.224Z,27.47
2018-09-11T13:23:00.154Z,27.42
2018-09-11T13:24:05.882Z,27.46
2018-09-11T13:25:11.832Z,27.42
2018-09-11T13:26:17.976Z,27.45
2018-09-11T13:27:23.921Z,27.46
2018-09-11T13:28:29.919Z,27.55
2018-09-11T13:29:35.845Z,27.75
2018-09-11T13:30:41.836Z,27.75
2018-09-11T13:31:47.782Z,27.65
2018-09-11T13:32:53.731Z,27.74
2018-09-11T13:33:59.992Z,27.64
2018-09-11T13:35:05.244Z,27.59
2018-09-11T13:36:11.180Z,27.57
2018-09-11T13:37:17.126Z,27.68
2018-09-11T13:38:23.073Z,27.93
2018-09-11T13:39:29.012Z,28.13
2018-09-11T13:40:35.084Z,28.17
2018-09-11T13:41:40.678Z,28.14
2018-09-11T13:42:46.643Z,28.04
2018-09-11T13:43:52.604Z,28.13
2018-09-11T13:44:58.538Z,28.18
2018-09-11T13:46:04.527Z,28.30
2018-09-11T13:47:10.543Z,28.21
2018-09-11T13:48:16.664Z,28.03
2018-09-11T13:49:22.649Z,28.13
2018-09-11T13:50:28.614Z,28.15
2018-09-11T13:51:34.650Z,28.24
2018-09-11T13:52:40.577Z,28.19
2018-09-11T13:53:46.522Z,28.24
2018-09-11T13:54:52.481Z,28.16
2018-09-11T13:55:58.469Z,28.30
2018-09-11T13:57:04.424Z,28.19
2018-09-11T13:58:10.346Z,28.30
2018-09-11T13:59:15.982Z,28.40
2018-09-11T14:00:22.206Z,28.34
2018-09-11T14:01:28.360Z,28.28
2018-09-11T14:02:34.306Z,28.24
2018-09-11T14:03:40.448Z,28.27
2018-09-11T14:04:46.396Z,28.26
2018-09-11T14:05:52.320Z,28.35
2018-09-11T14:06:58.288Z,28.50
2018-09-11T14:08:04.230Z,28.40
2018-09-11T14:09:09.889Z,28.54
2018-09-11T14:10:15.853Z,28.62
2018-09-11T14:11:21.504Z,28.55
2018-09-11T14:12:27.453Z,28.64
2018-09-11T14:13:33.427Z,28.69
2018-09-11T14:14:39.066Z,28.82
2018-09-11T14:15:45.086Z,28.57
2018-09-11T14:16:51.232Z,28.70
2018-09-11T14:17:57.441Z,28.68